createdAt,value
2023-09-10T00:00:24.352Z,24.57
2023-09-10T00:02:51.041Z,24.46
2023-09-10T00:05:17.976Z,24.37
2023-09-10T00:07:44.636Z,24.25
2023-09-10T00:10:11.467Z,24.16
2023-09-10T00:12:38.088Z,24.07
2023-09-10T00:15:06.067Z,24.00
2023-09-10T00:17:32.894Z,23.95
2023-09-10T00:20:00.519Z,23.90
2023-09-10T00:22:27.331Z,23.86
2023-09-10T00:24:53.964Z,23.81
2023-09-10T00:27:20.714Z,23.77
2023-09-10T00:29:47.382Z,23.74
2023-09-10T00:32:14.110Z,23.70
2023-09-10T00:34:41.723Z,23.67
2023-09-10T00:37:08.816Z,23.64
2023-09-10T00:39:35.586Z,23.60
2023-09-10T00:42:02.223Z,23.57
2023-09-10T00:44:28.970Z,23.53
2023-09-10T00:46:55.828Z,23.48
2023-09-10T00:49:22.851Z,23.45
2023-09-10T00:51:50.970Z,23.44
2023-09-10T00:54:19.075Z,23.41
2023-09-10T00:56:45.803Z,23.39
2023-09-10T00:59:12.953Z,23.38
2023-09-10T01:01:39.738Z,23.34
2023-09-10T01:04:06.757Z,23.31
2023-09-10T01:06:33.566Z,23.26
2023-09-10T01:09:00.361Z,23.18
2023-09-10T01:11:51.261Z,23.08
2023-09-10T01:14:29.550Z,23.08
2023-09-10T01:17:06.450Z,23.09
2023-09-10T01:25:09.681Z,23.06
2023-09-10T01:27:36.341Z,23.06
2023-09-10T01:30:03.825Z,23.06
2023-09-10T01:32:37.219Z,23.03
2023-09-10T01:35:14.176Z,23.01
2023-09-10T01:37:46.701Z,23.01
2023-09-10T01:40:20.415Z,23.01
2023-09-10T01:42:49.603Z,23.00
2023-09-10T01:45:16.577Z,22.97
2023-09-10T01:47:43.576Z,22.97
2023-09-10T01:50:11.481Z,22.96
2023-09-10T01:52:38.178Z,22.93
2023-09-10T01:55:05.539Z,22.94
2023-09-10T01:57:32.216Z,22.94
2023-09-10T01:59:58.874Z,22.95
2023-09-10T02:02:25.646Z,22.94
2023-09-10T02:04:52.301Z,22.94
2023-09-10T02:07:19.016Z,22.91
2023-09-10T02:09:45.766Z,22.90
2023-09-10T02:12:12.418Z,22.88
2023-09-10T02:14:39.072Z,22.85
2023-09-10T02:17:09.287Z,22.81
2023-09-10T02:19:36.148Z,22.80
2023-09-10T02:22:03.858Z,22.77
2023-09-10T02:24:30.432Z,22.76
2023-09-10T02:26:57.096Z,22.75
2023-09-10T02:29:23.851Z,22.72
2023-09-10T02:31:50.639Z,22.71
2023-09-10T02:34:17.401Z,22.69
2023-09-10T02:36:44.043Z,22.67
2023-09-10T02:39:10.642Z,22.66
2023-09-10T02:41:37.244Z,22.64
2023-09-10T02:44:04.091Z,22.63
2023-09-10T02:46:30.731Z,22.59
2023-09-10T02:48:57.430Z,22.58
2023-09-10T02:51:24.178Z,22.55
2023-09-10T02:53:50.800Z,22.51
2023-09-10T02:56:17.563Z,22.47
2023-09-10T02:58:44.243Z,22.47
2023-09-10T03:01:11.128Z,22.43
2023-09-10T03:03:37.899Z,22.38
2023-09-10T03:06:13.220Z,22.33
2023-09-10T03:08:40.481Z,22.30
2023-09-10T03:11:07.325Z,22.27
2023-09-10T03:13:34.042Z,22.24
2023-09-10T03:16:00.724Z,22.22
2023-09-10T03:18:27.515Z,22.21
2023-09-10T03:20:54.609Z,22.21
2023-09-10T03:23:21.351Z,22.19
2023-09-10T03:25:48.123Z,22.17
2023-09-10T03:28:14.928Z,22.14
2023-09-10T03:30:41.580Z,22.12
2023-09-10T03:33:08.290Z,22.10
2023-09-10T03:35:35.100Z,22.08
2023-09-10T03:38:02.052Z,22.06
2023-09-10T03:40:28.636Z,22.05
2023-09-10T03:42:55.217Z,22.04
2023-09-10T03:45:21.887Z,22.02
2023-09-10T03:47:48.750Z,22.01
2023-09-10T03:50:16.834Z,21.99
2023-09-10T03:52:43.536Z,21.96
2023-09-10T03:55:10.659Z,21.93
2023-09-10T03:57:37.223Z,21.90
2023-09-10T04:00:04.529Z,21.90
2023-09-10T04:02:32.220Z,21.86
2023-09-10T04:04:59.111Z,21.83
2023-09-10T04:07:25.812Z,21.82
2023-09-10T04:09:52.436Z,21.81
2023-09-10T04:12:19.018Z,21.80
2023-09-10T04:14:46.359Z,21.80
2023-09-10T04:17:18.118Z,21.80
2023-09-10T04:19:45.997Z,21.78
2023-09-10T04:22:12.767Z,21.76
2023-09-10T04:24:39.412Z,21.77
2023-09-10T04:27:06.085Z,21.77
2023-09-10T04:29:32.785Z,21.75
2023-09-10T04:31:59.490Z,21.73
2023-09-10T04:34:26.131Z,21.72
2023-09-10T04:36:52.834Z,21.68
2023-09-10T04:39:20.669Z,21.64
2023-09-10T04:41:47.990Z,21.63
2023-09-10T04:44:14.915Z,21.62
2023-09-10T04:46:41.770Z,21.62
2023-09-10T04:49:08.526Z,21.62
2023-09-10T04:51:35.136Z,21.61
2023-09-10T04:54:01.964Z,21.63
2023-09-10T04:56:28.554Z,21.62
2023-09-10T04:58:55.341Z,21.63
2023-09-10T05:01:22.034Z,21.65
2023-09-10T05:03:48.777Z,21.66
2023-09-10T05:06:15.531Z,21.68
2023-09-10T05:08:42.262Z,21.67
2023-09-10T05:11:08.973Z,21.65
2023-09-10T05:13:35.710Z,21.63
2023-09-10T05:16:02.752Z,21.58
2023-09-10T05:18:29.460Z,21.55
2023-09-10T05:20:56.145Z,21.54
2023-09-10T05:23:24.016Z,21.55
2023-09-10T05:25:51.148Z,21.55
2023-09-10T05:28:17.921Z,21.56
2023-09-10T05:30:44.759Z,21.56
2023-09-10T05:33:11.957Z,21.58
2023-09-10T05:35:38.643Z,21.58
2023-09-10T05:38:05.410Z,21.60
2023-09-10T05:40:39.042Z,21.62
2023-09-10T05:43:06.654Z,21.63
2023-09-10T05:45:35.171Z,21.66
2023-09-10T05:48:02.543Z,21.67
2023-09-10T05:50:29.323Z,21.67
2023-09-10T05:52:57.560Z,21.69
2023-09-10T05:55:25.550Z,21.72
2023-09-10T05:57:53.978Z,21.73
2023-09-10T06:00:21.680Z,21.75
2023-09-10T06:02:50.847Z,21.76
2023-09-10T06:05:18.030Z,21.80
2023-09-10T06:07:45.404Z,21.84
2023-09-10T06:10:12.268Z,21.89
2023-09-10T06:12:39.918Z,21.90
2023-09-10T06:15:08.075Z,21.92
2023-09-10T06:17:35.533Z,21.93
2023-09-10T06:20:03.861Z,21.96
2023-09-10T06:22:30.923Z,21.97
2023-09-10T06:24:57.837Z,21.99
2023-09-10T06:27:24.525Z,22.00
2023-09-10T06:29:51.357Z,22.03
2023-09-10T06:32:18.164Z,22.06
2023-09-10T06:34:44.845Z,22.11
2023-09-10T06:37:11.664Z,22.18
2023-09-10T06:39:40.194Z,22.23
2023-09-10T06:42:09.485Z,22.28
2023-09-10T06:44:36.735Z,22.33
2023-09-10T06:47:03.511Z,22.40
2023-09-10T06:49:30.687Z,22.46
2023-09-10T06:51:58.123Z,22.51
2023-09-10T06:54:24.821Z,22.53
2023-09-10T06:56:51.682Z,22.58
2023-09-10T06:59:18.429Z,22.67
2023-09-10T07:01:45.595Z,22.77
2023-09-10T07:04:21.743Z,23.07
2023-09-10T07:06:50.400Z,23.71
2023-09-10T07:09:18.786Z,24.39
2023-09-10T07:11:45.480Z,24.92
2023-09-10T07:14:12.249Z,25.04
2023-09-10T07:16:39.179Z,25.10
2023-09-10T07:19:05.855Z,25.11
2023-09-10T07:21:32.470Z,25.06
2023-09-10T07:23:59.336Z,25.34
2023-09-10T07:26:26.074Z,25.98
2023-09-10T07:28:52.923Z,26.64
2023-09-10T07:31:19.723Z,27.26
2023-09-10T07:33:46.504Z,27.85
2023-09-10T07:36:13.475Z,28.38
2023-09-10T07:38:40.393Z,28.87
2023-09-10T07:41:07.487Z,29.35
2023-09-10T07:43:34.146Z,29.74
2023-09-10T07:46:00.823Z,30.15
2023-09-10T07:48:27.556Z,30.57
2023-09-10T07:50:56.425Z,30.77
2023-09-10T07:53:24.226Z,30.76
2023-09-10T07:55:51.350Z,30.35
2023-09-10T07:58:18.359Z,30.26
2023-09-10T08:00:45.524Z,30.61
2023-09-10T08:03:13.928Z,30.99
2023-09-10T08:05:41.197Z,31.12
2023-09-10T08:08:07.836Z,30.89
2023-09-10T08:10:35.576Z,30.53
2023-09-10T08:13:05.716Z,30.63
2023-09-10T08:15:32.996Z,30.78
2023-09-10T08:18:00.098Z,30.95
2023-09-10T08:20:28.244Z,31.37
2023-09-10T08:22:54.973Z,31.87
2023-09-10T08:25:22.059Z,32.12
2023-09-10T08:27:48.772Z,32.49
2023-09-10T08:30:15.735Z,32.85
2023-09-10T08:32:44.222Z,32.95
2023-09-10T08:35:11.185Z,32.85
2023-09-10T08:37:37.886Z,32.98
2023-09-10T08:40:05.033Z,33.26
2023-09-10T08:42:56.663Z,33.51
2023-09-10T08:45:24.013Z,33.55
2023-09-10T08:47:55.376Z,33.94
2023-09-10T08:50:23.691Z,34.46
2023-09-10T08:52:52.006Z,34.81
2023-09-10T08:55:19.034Z,34.87
2023-09-10T08:57:47.248Z,35.19
2023-09-10T09:00:14.203Z,35.53
2023-09-10T09:02:42.820Z,35.48
2023-09-10T09:05:10.473Z,35.37
2023-09-10T09:10:29.987Z,35.18
2023-09-10T09:13:00.090Z,34.96
2023-09-10T09:15:27.777Z,34.64
2023-09-10T09:17:57.511Z,34.28
2023-09-10T09:20:25.850Z,33.93
2023-09-10T09:22:59.769Z,33.53
2023-09-10T09:25:27.798Z,33.16
2023-09-10T09:27:57.302Z,32.84
2023-09-10T09:30:24.046Z,32.55
2023-09-10T09:32:50.940Z,32.30
2023-09-10T09:35:17.716Z,32.05
2023-09-10T09:37:44.382Z,31.85
2023-09-10T09:40:11.405Z,31.69
2023-09-10T09:42:38.559Z,31.57
2023-09-10T09:45:06.194Z,31.45
2023-09-10T09:47:33.596Z,31.35
2023-09-10T09:50:00.514Z,31.19
2023-09-10T09:52:27.271Z,31.00
2023-09-10T09:54:53.818Z,30.88
2023-09-10T09:57:20.516Z,30.78
2023-09-10T09:59:49.522Z,30.68
2023-09-10T10:02:17.172Z,30.45
2023-09-10T10:04:45.150Z,30.57
2023-09-10T10:07:23.432Z,30.61
2023-09-10T10:09:53.159Z,30.80
2023-09-10T10:12:20.892Z,31.26
2023-09-10T10:14:48.769Z,31.80
2023-09-10T10:17:17.908Z,32.28
2023-09-10T10:19:45.020Z,32.69
2023-09-10T10:22:14.198Z,33.16
2023-09-10T10:24:41.108Z,33.43
2023-09-10T10:27:09.077Z,33.80
2023-09-10T10:29:36.679Z,34.16
2023-09-10T10:32:14.356Z,34.22
2023-09-10T10:34:50.424Z,34.03
2023-09-10T10:37:27.180Z,33.83
2023-09-10T10:42:39.107Z,33.63
2023-09-10T10:45:08.199Z,33.48
2023-09-10T10:47:40.066Z,33.43
2023-09-10T10:50:10.752Z,33.49
2023-09-10T10:52:45.856Z,33.49
2023-09-10T10:55:13.495Z,33.45
2023-09-10T10:57:40.519Z,33.39
2023-09-10T11:00:10.922Z,33.30
2023-09-10T11:02:37.806Z,33.27
2023-09-10T11:05:08.842Z,33.30
2023-09-10T11:07:36.928Z,33.32
2023-09-10T11:18:43.616Z,33.42
2023-09-10T11:21:13.986Z,33.43
2023-09-10T11:24:02.450Z,33.40
2023-09-10T11:26:30.529Z,33.38
2023-09-10T11:29:01.139Z,33.36
2023-09-10T11:37:08.473Z,33.11
2023-09-10T11:39:36.743Z,32.99
2023-09-10T11:42:05.776Z,32.88
2023-09-10T11:44:32.556Z,32.78
2023-09-10T11:46:59.364Z,32.68
2023-09-10T11:49:26.518Z,32.57
2023-09-10T11:51:56.303Z,32.46
2023-09-10T11:54:23.724Z,32.39
2023-09-10T11:56:53.373Z,32.35
2023-09-10T11:59:24.715Z,32.25
2023-09-10T12:01:55.500Z,32.18
2023-09-10T12:04:31.620Z,32.14
2023-09-10T12:06:59.072Z,32.14
2023-09-10T12:09:30.761Z,32.19
2023-09-10T12:12:00.444Z,32.22
2023-09-10T12:14:27.889Z,32.21
2023-09-10T12:16:54.975Z,32.22
2023-09-10T12:19:22.019Z,32.39
2023-09-10T12:21:49.032Z,32.66
2023-09-10T12:24:15.686Z,32.96
2023-09-10T12:26:44.064Z,33.16
2023-09-10T12:29:13.924Z,33.22
2023-09-10T12:31:42.586Z,33.30
2023-09-10T12:34:11.075Z,33.40
2023-09-10T12:36:38.570Z,33.51
2023-09-10T12:39:17.568Z,33.68
2023-09-10T12:41:45.538Z,33.75
2023-09-10T12:44:12.320Z,33.75
2023-09-10T12:46:41.103Z,33.71
2023-09-10T12:49:08.017Z,33.55
2023-09-10T12:51:34.699Z,33.41
2023-09-10T12:54:01.427Z,33.24
2023-09-10T12:56:29.852Z,33.11
2023-09-10T12:58:57.204Z,33.01
2023-09-10T13:01:26.885Z,32.87
2023-09-10T13:03:53.718Z,32.66
2023-09-10T13:06:20.485Z,32.42
2023-09-10T13:08:47.182Z,32.22
2023-09-10T13:11:13.880Z,32.03
2023-09-10T13:13:40.792Z,31.84
2023-09-10T13:16:07.721Z,31.65
2023-09-10T13:18:34.558Z,31.44
2023-09-10T13:21:01.194Z,31.25
2023-09-10T13:23:27.982Z,31.03
2023-09-10T13:25:54.704Z,30.82
2023-09-10T13:28:21.418Z,30.58
2023-09-10T13:30:48.747Z,30.37
2023-09-10T13:33:15.555Z,30.17
2023-09-10T13:35:42.277Z,29.95
2023-09-10T13:38:08.997Z,29.75
2023-09-10T13:40:37.611Z,29.61
2023-09-10T13:43:04.538Z,29.49
2023-09-10T13:45:31.258Z,29.39
2023-09-10T13:47:57.979Z,29.30
2023-09-10T13:50:24.773Z,29.24
2023-09-10T13:52:51.899Z,29.20
2023-09-10T13:55:18.618Z,29.19
2023-09-10T13:57:45.206Z,29.22
2023-09-10T14:00:12.393Z,29.30
2023-09-10T14:02:39.277Z,29.39
2023-09-10T14:05:08.461Z,29.48
2023-09-10T14:07:35.665Z,29.59
2023-09-10T14:10:02.498Z,29.68
2023-09-10T14:12:29.144Z,29.70
2023-09-10T14:14:55.758Z,29.74
2023-09-10T14:17:22.447Z,29.80
2023-09-10T14:19:49.100Z,29.88
2023-09-10T14:22:15.660Z,29.95
2023-09-10T14:24:42.651Z,29.99
2023-09-10T14:27:09.362Z,30.02
2023-09-10T14:29:36.110Z,30.06
2023-09-10T14:32:03.055Z,30.06
2023-09-10T14:34:29.710Z,30.05
2023-09-10T14:36:56.324Z,30.03
2023-09-10T14:39:22.920Z,30.01
2023-09-10T14:41:49.674Z,30.04
2023-09-10T14:44:16.364Z,30.01
2023-09-10T14:46:43.116Z,29.94
2023-09-10T14:49:09.829Z,29.87
2023-09-10T14:51:36.441Z,29.79
2023-09-10T14:54:03.320Z,29.65
2023-09-10T14:56:30.072Z,29.50
2023-09-10T14:58:56.815Z,29.45
2023-09-10T15:01:23.494Z,29.43
2023-09-10T15:03:50.365Z,29.41
2023-09-10T15:06:17.202Z,29.37
2023-09-10T15:08:43.971Z,29.33
2023-09-10T15:11:10.779Z,29.32
2023-09-10T15:13:37.644Z,29.33
2023-09-10T15:16:04.665Z,29.23
2023-09-10T15:18:31.368Z,29.18
2023-09-10T15:20:58.040Z,29.09
2023-09-10T15:23:24.725Z,29.07
2023-09-10T15:25:51.597Z,29.07
2023-09-10T15:28:18.258Z,29.08
2023-09-10T15:30:44.903Z,29.08
2023-09-10T15:33:11.751Z,29.07
2023-09-10T15:35:38.579Z,29.04
2023-09-10T15:38:05.313Z,29.02
2023-09-10T15:40:32.119Z,29.03
2023-09-10T15:42:58.850Z,28.99
2023-09-10T15:45:25.646Z,28.94
2023-09-10T15:47:53.347Z,28.90
2023-09-10T15:50:20.030Z,28.86
2023-09-10T15:52:46.802Z,28.84
2023-09-10T15:55:13.468Z,28.79
2023-09-10T15:57:40.086Z,28.78
2023-09-10T16:00:08.738Z,28.81
2023-09-10T16:02:39.887Z,28.85
2023-09-10T16:05:08.158Z,28.90
2023-09-10T16:07:35.367Z,28.93
2023-09-10T16:10:02.255Z,28.94
2023-09-10T16:12:30.655Z,28.98
2023-09-10T16:14:58.417Z,28.97
2023-09-10T16:17:25.228Z,28.97
2023-09-10T16:19:52.330Z,28.94
2023-09-10T16:22:22.692Z,28.90
2023-09-10T16:24:49.432Z,28.82
2023-09-10T16:27:16.240Z,28.75
2023-09-10T16:29:43.163Z,28.67
2023-09-10T16:32:09.971Z,28.58
2023-09-10T16:34:36.635Z,28.47
2023-09-10T16:37:03.344Z,28.38
2023-09-10T16:39:30.000Z,28.29
2023-09-10T16:41:57.325Z,28.19
2023-09-10T16:44:29.021Z,28.11
2023-09-10T16:46:57.367Z,28.05
2023-09-10T16:49:25.355Z,28.00
2023-09-10T16:51:52.250Z,27.94
2023-09-10T16:54:19.067Z,27.90
2023-09-10T16:56:45.758Z,27.85
2023-09-10T16:59:12.843Z,27.79
2023-09-10T17:01:39.576Z,27.74
2023-09-10T17:04:07.711Z,27.68
2023-09-10T17:06:35.510Z,27.63
2023-09-10T17:09:03.370Z,27.55
2023-09-10T17:11:30.079Z,27.46
2023-09-10T17:13:57.452Z,27.42
2023-09-10T17:16:24.234Z,27.33
2023-09-10T17:18:50.893Z,27.25
2023-09-10T17:21:17.489Z,27.13
2023-09-10T17:23:47.687Z,27.07
2023-09-10T17:26:19.320Z,27.01
2023-09-10T17:28:47.176Z,26.95
2023-09-10T17:31:16.092Z,26.92
2023-09-10T17:33:43.796Z,26.89
2023-09-10T17:36:10.428Z,26.85
2023-09-10T17:38:39.050Z,26.83
2023-09-10T17:41:06.306Z,26.81
2023-09-10T17:43:33.046Z,26.80
2023-09-10T17:45:59.819Z,26.79
2023-09-10T17:48:26.537Z,26.78
2023-09-10T17:50:53.397Z,26.77
2023-09-10T17:53:20.301Z,26.75
2023-09-10T17:55:47.063Z,26.72
2023-09-10T17:58:14.082Z,26.69
2023-09-10T18:00:40.901Z,26.67
2023-09-10T18:03:07.859Z,26.60
2023-09-10T18:05:34.741Z,26.56
2023-09-10T18:08:01.877Z,26.48
2023-09-10T18:10:28.818Z,26.42
2023-09-10T18:12:56.741Z,26.36
2023-09-10T18:15:23.479Z,26.30
2023-09-10T18:17:50.276Z,26.24
2023-09-10T18:20:17.121Z,26.16
2023-09-10T18:22:43.890Z,26.11
2023-09-10T18:25:10.668Z,26.02
2023-09-10T18:27:39.517Z,25.94
2023-09-10T18:30:08.148Z,25.86
2023-09-10T18:32:34.801Z,25.74
2023-09-10T18:35:02.112Z,25.66
2023-09-10T18:37:28.900Z,25.56
2023-09-10T18:39:55.732Z,25.45
2023-09-10T18:42:22.382Z,25.37
2023-09-10T18:44:49.147Z,25.31
2023-09-10T18:47:15.945Z,25.24
2023-09-10T18:49:42.706Z,25.20
2023-09-10T18:52:12.637Z,25.14
2023-09-10T18:54:40.201Z,25.06
2023-09-10T18:57:08.001Z,25.01
2023-09-10T18:59:35.406Z,24.96
2023-09-10T19:02:02.486Z,24.88
2023-09-10T19:04:29.403Z,24.82
2023-09-10T19:06:56.102Z,24.77
2023-09-10T19:09:22.721Z,24.73
2023-09-10T19:11:49.446Z,24.69
2023-09-10T19:14:16.620Z,24.62
2023-09-10T19:16:44.558Z,24.58
2023-09-10T19:19:11.269Z,24.50
2023-09-10T19:21:38.921Z,24.44
2023-09-10T19:24:05.756Z,24.37
2023-09-10T19:26:32.618Z,24.35
2023-09-10T19:28:59.384Z,24.30
2023-09-10T19:31:33.627Z,24.25
2023-09-10T19:34:03.219Z,24.19
2023-09-10T19:36:34.367Z,24.15
2023-09-10T19:39:08.725Z,24.10
2023-09-10T19:41:36.161Z,24.07
2023-09-10T19:44:03.865Z,24.02
2023-09-10T19:46:31.237Z,24.01
2023-09-10T19:48:58.035Z,23.96
2023-09-10T19:51:25.168Z,23.92
2023-09-10T19:53:53.753Z,23.88
2023-09-10T19:56:23.325Z,23.86
2023-09-10T19:59:08.522Z,23.79
2023-09-10T20:01:37.720Z,23.84
2023-09-10T20:04:04.694Z,23.82
2023-09-10T20:06:32.140Z,23.80
2023-09-10T20:08:58.972Z,23.80
2023-09-10T20:11:25.686Z,23.78
2023-09-10T20:13:52.360Z,23.75
2023-09-10T20:16:19.103Z,23.73
2023-09-10T20:18:46.290Z,23.71
2023-09-10T20:21:13.047Z,23.68
2023-09-10T20:23:41.870Z,23.66
2023-09-10T20:26:09.897Z,23.62
2023-09-10T20:28:37.376Z,23.62
2023-09-10T20:31:05.611Z,23.59
2023-09-10T20:33:33.523Z,23.57
2023-09-10T20:36:08.428Z,23.53
2023-09-10T20:38:35.403Z,23.52
2023-09-10T20:41:12.036Z,23.49
2023-09-10T20:43:40.448Z,23.48
2023-09-10T20:46:07.633Z,23.45
2023-09-10T20:48:34.536Z,23.45
2023-09-10T20:51:06.815Z,23.41
2023-09-10T20:53:34.310Z,23.40
2023-09-10T20:56:01.612Z,23.39
2023-09-10T20:58:28.435Z,23.34
2023-09-10T21:00:55.285Z,23.31
2023-09-10T21:03:28.935Z,23.27
2023-09-10T21:05:58.107Z,23.25
2023-09-10T21:08:25.349Z,23.21
2023-09-10T21:10:52.179Z,23.16
2023-09-10T21:13:18.849Z,23.11
2023-09-10T21:15:45.530Z,23.08
2023-09-10T21:18:12.273Z,23.05
2023-09-10T21:20:39.066Z,23.02
2023-09-10T21:23:05.795Z,22.98
2023-09-10T21:25:32.517Z,22.94
2023-09-10T21:27:59.095Z,22.90
2023-09-10T21:30:31.028Z,22.87
2023-09-10T21:32:58.018Z,22.83
2023-09-10T21:35:24.734Z,22.80
2023-09-10T21:37:51.451Z,22.76
2023-09-10T21:40:19.422Z,22.75
2023-09-10T21:42:46.924Z,22.72
2023-09-10T21:45:13.562Z,22.69
2023-09-10T21:47:41.622Z,22.66
2023-09-10T21:50:08.927Z,22.64
2023-09-10T21:52:35.876Z,22.62
2023-09-10T21:55:02.776Z,22.60
2023-09-10T21:57:29.499Z,22.56
2023-09-10T21:59:56.111Z,22.53
2023-09-10T22:02:22.829Z,22.51
2023-09-10T22:04:49.602Z,22.47
2023-09-10T22:07:19.764Z,22.45
2023-09-10T22:09:46.943Z,22.42
2023-09-10T22:12:14.833Z,22.38
2023-09-10T22:14:41.621Z,22.34
2023-09-10T22:17:08.479Z,22.33
2023-09-10T22:19:35.180Z,22.29
2023-09-10T22:22:01.793Z,22.26
2023-09-10T22:24:28.510Z,22.23
2023-09-10T22:26:55.141Z,22.18
2023-09-10T22:29:23.038Z,22.15
2023-09-10T22:31:49.888Z,22.09
2023-09-10T22:34:16.586Z,22.05
2023-09-10T22:36:43.335Z,22.01
2023-09-10T22:39:09.932Z,21.97
2023-09-10T22:41:36.710Z,21.95
2023-09-10T22:44:03.921Z,21.92
2023-09-10T22:46:30.885Z,21.89
2023-09-10T22:48:57.813Z,21.86
2023-09-10T22:51:24.496Z,21.82
2023-09-10T22:53:52.399Z,21.79
2023-09-10T22:56:21.795Z,21.77
2023-09-10T22:58:49.248Z,21.73
2023-09-10T23:01:17.896Z,21.73
2023-09-10T23:03:45.155Z,21.69
2023-09-10T23:06:12.227Z,21.67
2023-09-10T23:08:39.258Z,21.66
2023-09-10T23:11:07.061Z,21.64
2023-09-10T23:13:35.712Z,21.62
2023-09-10T23:16:03.371Z,21.58
2023-09-10T23:18:30.226Z,21.57
2023-09-10T23:20:56.853Z,21.56
2023-09-10T23:23:23.724Z,21.55
2023-09-10T23:25:50.463Z,21.52
2023-09-10T23:28:17.214Z,21.50
2023-09-10T23:30:43.843Z,21.47
2023-09-10T23:33:10.621Z,21.46
2023-09-10T23:35:38.680Z,21.45
2023-09-10T23:38:08.277Z,21.44
2023-09-10T23:40:37.375Z,21.21
2023-09-10T23:43:03.985Z,21.15
2023-09-10T23:45:30.572Z,21.30
2023-09-10T23:47:57.510Z,21.30
2023-09-10T23:50:24.252Z,21.29
2023-09-10T23:52:50.916Z,21.27
2023-09-10T23:55:17.799Z,21.26
2023-09-10T23:57:44.537Z,21.24
